createdAt,value
2023-02-11T00:01:35.748Z,102387.34
2023-02-11T00:04:38.764Z,102378.84
2023-02-11T00:07:41.481Z,102381.50
2023-02-11T00:10:46.559Z,102373.13
2023-02-11T00:13:49.557Z,102376.69
2023-02-11T00:16:52.648Z,102366.13
2023-02-11T00:19:55.361Z,102370.94
2023-02-11T00:22:58.359Z,102364.19
2023-02-11T00:26:01.040Z,102363.34
2023-02-11T00:29:05.950Z,102363.88
2023-02-11T00:32:09.223Z,102371.16
2023-02-11T00:35:12.280Z,102364.94
2023-02-11T00:38:15.212Z,102360.47
2023-02-11T00:41:18.884Z,102358.87
2023-02-11T00:44:21.723Z,102363.25
2023-02-11T00:47:24.943Z,102361.06
2023-02-11T00:50:27.581Z,102357.19
2023-02-11T00:53:32.897Z,102354.41
2023-02-11T00:56:36.160Z,102349.88
2023-02-11T00:59:39.275Z,102347.78
2023-02-11T01:02:42.040Z,102344.53
2023-02-11T01:05:45.681Z,102334.97
2023-02-11T01:08:48.619Z,102338.78
2023-02-11T01:11:51.764Z,102330.16
2023-02-11T01:14:54.448Z,102335.72
2023-02-11T01:17:57.504Z,102341.13
2023-02-11T01:21:00.189Z,102337.69
2023-02-11T01:24:03.263Z,102327.16
2023-02-11T01:27:06.007Z,102324.41
2023-02-11T01:30:12.978Z,102319.25
2023-02-11T01:33:15.831Z,102313.47
2023-02-11T01:36:18.973Z,102313.53
2023-02-11T01:39:21.789Z,102314.72
2023-02-11T01:42:25.002Z,102314.22
2023-02-11T01:45:48.923Z,102311.41
2023-02-11T01:49:09.878Z,102309.72
2023-02-11T01:52:20.399Z,102305.19
2023-02-11T01:55:42.178Z,102315.06
2023-02-11T01:58:47.703Z,102311.06
2023-02-11T02:01:57.422Z,102305.13
2023-02-11T02:05:17.217Z,102312.31
2023-02-11T02:08:23.964Z,102315.34
2023-02-11T02:11:27.082Z,102317.34
2023-02-11T02:14:29.824Z,102316.75
2023-02-11T02:17:47.057Z,102303.12
2023-02-11T02:21:26.528Z,102303.06
2023-02-11T02:24:47.487Z,102302.69
2023-02-11T02:28:19.351Z,102301.84
2023-02-11T02:31:31.928Z,102298.78
2023-02-11T02:34:52.785Z,102298.72
2023-02-11T02:38:20.090Z,102298.37
2023-02-11T02:41:28.749Z,102300.94
2023-02-11T02:44:32.709Z,102299.59
2023-02-11T02:47:35.344Z,102300.63
2023-02-11T02:50:38.604Z,102292.97
2023-02-11T02:54:02.373Z,102288.00
2023-02-11T02:57:45.214Z,102282.72
2023-02-11T03:01:18.396Z,102274.88
2023-02-11T03:04:30.417Z,102276.25
2023-02-11T03:07:45.635Z,102275.03
2023-02-11T03:10:52.438Z,102263.13
2023-02-11T03:13:56.687Z,102253.22
2023-02-11T03:17:03.028Z,102255.66
2023-02-11T03:20:10.318Z,102250.44
2023-02-11T03:23:24.054Z,102254.06
2023-02-11T03:26:40.992Z,102252.22
2023-02-11T03:29:55.151Z,102254.06
2023-02-11T03:32:59.519Z,102249.19
2023-02-11T03:36:15.429Z,102232.69
2023-02-11T03:39:33.578Z,102238.41
2023-02-11T03:42:42.725Z,102227.97
2023-02-11T03:45:48.840Z,102230.66
2023-02-11T03:48:58.273Z,102230.16
2023-02-11T03:52:02.907Z,102213.91
2023-02-11T03:55:18.598Z,102214.34
2023-02-11T03:58:21.545Z,102212.63
2023-02-11T04:01:24.740Z,102209.66
2023-02-11T04:04:27.949Z,102209.00
2023-02-11T04:07:31.015Z,102204.03
2023-02-11T04:10:34.094Z,102205.81
2023-02-11T04:13:36.772Z,102199.28
2023-02-11T04:16:40.213Z,102200.41
2023-02-11T04:19:42.948Z,102197.69
2023-02-11T04:22:46.085Z,102195.44
2023-02-11T04:25:52.681Z,102197.19
2023-02-11T04:28:55.915Z,102201.03
2023-02-11T04:31:58.674Z,102191.19
2023-02-11T04:35:03.023Z,102183.09
2023-02-11T04:38:05.847Z,102188.94
2023-02-11T04:41:09.054Z,102188.12
2023-02-11T04:44:11.923Z,102188.22
2023-02-11T04:47:15.715Z,102183.47
2023-02-11T04:50:18.537Z,102188.50
2023-02-11T04:53:22.210Z,102177.72
2023-02-11T04:56:25.017Z,102178.44
2023-02-11T04:59:28.212Z,102176.63
2023-02-11T05:02:30.922Z,102178.53
2023-02-11T05:05:34.181Z,102178.75
2023-02-11T05:08:36.988Z,102176.44
2023-02-11T05:11:40.323Z,102174.09
2023-02-11T05:14:43.033Z,102180.03
2023-02-11T05:17:46.188Z,102167.31
2023-02-11T05:20:49.064Z,102170.88
2023-02-11T05:23:52.582Z,102165.44
2023-02-11T05:26:55.315Z,102163.56
2023-02-11T05:29:58.417Z,102172.13
2023-02-11T05:33:01.237Z,102167.62
2023-02-11T05:36:07.913Z,102182.84
2023-02-11T05:39:10.611Z,102189.03
2023-02-11T05:42:14.081Z,102186.16
2023-02-11T05:45:16.842Z,102185.50
2023-02-11T05:48:20.032Z,102186.41
2023-02-11T05:51:25.393Z,102179.41
2023-02-11T05:54:28.472Z,102179.69
2023-02-11T05:57:31.179Z,102179.09
2023-02-11T06:00:34.602Z,102166.41
2023-02-11T06:03:38.019Z,102162.97
2023-02-11T06:06:41.153Z,102165.72
2023-02-11T06:09:44.443Z,102157.12
2023-02-11T06:12:47.152Z,102169.22
2023-02-11T06:15:58.672Z,102177.16
2023-02-11T06:19:01.449Z,102176.16
2023-02-11T06:22:04.594Z,102173.13
2023-02-11T06:25:07.601Z,102163.91
2023-02-11T06:28:10.945Z,102156.22
2023-02-11T06:31:15.282Z,102164.81
2023-02-11T06:34:18.367Z,102164.53
2023-02-11T06:37:21.671Z,102163.69
2023-02-11T06:40:24.816Z,102165.09
2023-02-11T06:43:27.759Z,102157.72
2023-02-11T06:46:31.027Z,102159.06
2023-02-11T06:49:33.717Z,102154.16
2023-02-11T06:52:36.891Z,102148.84
2023-02-11T06:55:39.728Z,102150.03
2023-02-11T06:58:42.947Z,102150.38
2023-02-11T07:01:45.828Z,102154.75
2023-02-11T07:04:49.003Z,102154.63
2023-02-11T07:07:51.647Z,102147.66
2023-02-11T07:10:54.672Z,102137.63
2023-02-11T07:14:02.537Z,102147.53
2023-02-11T07:17:06.147Z,102143.88
2023-02-11T07:20:09.746Z,102149.38
2023-02-11T07:23:12.897Z,102136.13
2023-02-11T07:26:18.806Z,102134.44
2023-02-11T07:29:21.989Z,102123.56
2023-02-11T07:32:24.652Z,102127.47
2023-02-11T07:35:27.749Z,102124.78
2023-02-11T07:38:31.474Z,102123.25
2023-02-11T07:41:37.843Z,102121.47
2023-02-11T07:44:41.364Z,102132.75
2023-02-11T07:47:44.672Z,102127.56
2023-02-11T07:50:47.520Z,102120.19
2023-02-11T07:53:52.163Z,102112.19
2023-02-11T07:56:54.972Z,102118.69
2023-02-11T07:59:58.011Z,102117.03
2023-02-11T08:03:00.885Z,102111.84
2023-02-11T08:06:14.960Z,102109.62
2023-02-11T08:09:18.014Z,102101.84
2023-02-11T08:12:21.071Z,102101.16
2023-02-11T08:15:23.866Z,102117.91
2023-02-11T08:18:26.819Z,102113.62
2023-02-11T08:21:30.331Z,102102.59
2023-02-11T08:24:33.327Z,102096.50
2023-02-11T08:27:36.036Z,102092.41
2023-02-11T08:30:39.023Z,102093.38
2023-02-11T08:33:42.108Z,102098.59
2023-02-11T08:36:46.654Z,102099.31
2023-02-11T08:39:49.408Z,102091.37
2023-02-11T08:42:52.644Z,102107.78
2023-02-11T08:45:55.386Z,102108.84
2023-02-11T08:48:58.817Z,102096.28
2023-02-11T08:52:04.302Z,102084.78
2023-02-11T08:55:07.561Z,102087.50
2023-02-11T08:58:10.218Z,102077.41
2023-02-11T09:02:50.488Z,102087.66
2023-02-11T09:05:53.767Z,102087.66
2023-02-11T09:08:58.786Z,102088.44
2023-02-11T09:12:01.927Z,102092.91
2023-02-11T09:15:05.073Z,102087.91
2023-02-11T09:18:08.320Z,102082.72
2023-02-11T09:21:11.039Z,102080.81
2023-02-11T09:24:15.050Z,102076.91
2023-02-11T09:27:17.788Z,102071.91
2023-02-11T09:30:21.189Z,102063.16
2023-02-11T09:33:24.016Z,102068.72
2023-02-11T09:36:38.785Z,102070.94
2023-02-11T09:39:41.523Z,102067.41
2023-02-11T09:43:01.136Z,102064.37
2023-02-11T09:46:05.918Z,102065.13
2023-02-11T09:49:20.180Z,102061.97
2023-02-11T09:52:53.851Z,102063.28
2023-02-11T09:56:00.743Z,102061.97
2023-02-11T09:59:04.856Z,102047.25
2023-02-11T10:02:28.038Z,102056.03
2023-02-11T10:06:06.117Z,102053.34
2023-02-11T10:09:30.842Z,102048.53
2023-02-11T10:12:55.659Z,102033.66
2023-02-11T10:16:01.144Z,102031.16
2023-02-11T10:19:22.405Z,102037.37
2023-02-11T10:22:31.222Z,102035.56
2023-02-11T10:25:38.644Z,102035.97
2023-02-11T10:28:46.331Z,102029.91
2023-02-11T10:31:51.065Z,102012.81
2023-02-11T10:34:58.951Z,102009.28
2023-02-11T10:38:01.971Z,102008.16
2023-02-11T10:41:05.621Z,102005.25
2023-02-11T10:44:08.810Z,102011.09
2023-02-11T10:47:27.912Z,102003.91
2023-02-11T10:50:37.216Z,101989.34
2023-02-11T10:53:40.127Z,101984.50
2023-02-11T10:56:53.732Z,101979.91
2023-02-11T11:00:06.919Z,101979.09
2023-02-11T11:03:22.452Z,101969.16
2023-02-11T11:06:33.172Z,101961.78
2023-02-11T11:09:48.578Z,101965.56
2023-02-11T11:12:51.647Z,101953.75
2023-02-11T11:16:33.764Z,101948.78
2023-02-11T11:19:39.364Z,101939.13
2023-02-11T11:22:43.480Z,101937.69
2023-02-11T11:26:24.750Z,101932.34
2023-02-11T11:29:35.956Z,101928.75
2023-02-11T11:32:42.340Z,101913.88
2023-02-11T11:35:59.883Z,101913.75
2023-02-11T11:39:17.628Z,101898.53
2023-02-11T11:42:32.876Z,101902.03
2023-02-11T11:45:35.830Z,101904.13
2023-02-11T11:48:42.555Z,101896.44
2023-02-11T11:51:55.398Z,101893.31
2023-02-11T11:55:16.460Z,101891.81
2023-02-11T11:58:22.337Z,101877.53
2023-02-11T12:01:57.827Z,101870.47
2023-02-11T12:05:23.865Z,101859.47
2023-02-11T12:08:48.882Z,101858.75
2023-02-11T12:12:19.503Z,101852.06
2023-02-11T12:15:56.390Z,101858.78
2023-02-11T12:19:30.676Z,101838.72
2023-02-11T12:23:12.148Z,101838.94
2023-02-11T12:26:20.789Z,101840.09
2023-02-11T12:29:45.923Z,101828.00
2023-02-11T12:33:05.120Z,101821.59
2023-02-11T12:36:47.068Z,101823.97
2023-02-11T12:40:12.337Z,101810.09
2023-02-11T12:43:26.158Z,101804.66
2023-02-11T12:46:36.380Z,101792.97
2023-02-11T12:50:07.762Z,101788.44
2023-02-11T12:53:17.040Z,101785.94
2023-02-11T12:56:39.149Z,101771.00
2023-02-11T12:59:42.410Z,101767.19
2023-02-11T13:02:51.530Z,101758.13
2023-02-11T13:05:59.441Z,101759.22
2023-02-11T13:09:07.098Z,101762.09
2023-02-11T13:12:32.861Z,101757.94
2023-02-11T13:15:36.384Z,101765.41
2023-02-11T13:19:14.130Z,101768.19
2023-02-11T13:22:25.566Z,101749.00
2023-02-11T13:26:10.521Z,101759.81
2023-02-11T13:29:21.209Z,101743.00
2023-02-11T13:32:24.895Z,101749.22
2023-02-11T13:35:35.397Z,101743.31
2023-02-11T13:38:39.933Z,101754.19
2023-02-11T13:41:45.685Z,101744.25
2023-02-11T13:44:49.418Z,101740.84
2023-02-11T13:47:58.649Z,101735.69
2023-02-11T13:51:07.709Z,101733.66
2023-02-11T13:54:39.825Z,101729.78
2023-02-11T13:57:43.674Z,101730.22
2023-02-11T14:00:50.202Z,101724.97
2023-02-11T14:04:45.476Z,101732.31
2023-02-11T14:08:29.124Z,101732.94
2023-02-11T14:11:37.608Z,101744.19
2023-02-11T14:15:19.261Z,101762.37
2023-02-11T14:18:39.793Z,101762.59
2023-02-11T14:21:44.816Z,101759.03
2023-02-11T14:24:55.717Z,101760.06
2023-02-11T14:28:25.244Z,101752.34
2023-02-11T14:31:47.265Z,101758.03
2023-02-11T14:35:15.551Z,101752.56
2023-02-11T14:38:41.207Z,101745.66
2023-02-11T14:41:48.385Z,101744.34
2023-02-11T14:44:56.712Z,101742.53
2023-02-11T14:48:18.644Z,101746.47
2023-02-11T14:51:31.788Z,101742.88
2023-02-11T14:54:35.829Z,101735.00
2023-02-11T14:57:40.088Z,101721.47
2023-02-11T15:00:59.915Z,101733.41
2023-02-11T15:04:07.555Z,101715.56
2023-02-11T15:07:13.752Z,101721.91
2023-02-11T15:10:30.172Z,101710.91
2023-02-11T15:13:35.172Z,101726.22
2023-02-11T15:16:45.750Z,101717.56
2023-02-11T15:19:55.337Z,101724.19
2023-02-11T15:23:03.837Z,101729.50
2023-02-11T15:26:15.928Z,101710.31
2023-02-11T15:29:24.938Z,101711.75
2023-02-11T15:32:28.918Z,101718.47
2023-02-11T15:35:32.836Z,101713.38
2023-02-11T15:38:37.289Z,101711.84
2023-02-11T15:41:43.197Z,101703.16
2023-02-11T15:44:54.324Z,101690.91
2023-02-11T15:48:08.085Z,101703.84
2023-02-11T15:51:34.217Z,101694.66
2023-02-11T15:54:40.868Z,101692.81
2023-02-11T15:58:04.284Z,101704.84
2023-02-11T16:01:10.731Z,101686.50
2023-02-11T16:04:21.864Z,101683.50
2023-02-11T16:07:48.071Z,101678.13
2023-02-11T16:11:03.794Z,101681.97
2023-02-11T16:14:29.952Z,101687.56
2023-02-11T16:17:35.244Z,101680.22
2023-02-11T16:20:42.406Z,101677.97
2023-02-11T16:23:54.084Z,101670.84
2023-02-11T16:27:05.300Z,101665.56
2023-02-11T16:30:33.965Z,101674.13
2023-02-11T16:33:40.688Z,101680.22
2023-02-11T16:36:50.106Z,101677.78
2023-02-11T16:39:59.443Z,101679.62
2023-02-11T16:43:04.084Z,101701.31
2023-02-11T16:46:09.487Z,101698.56
2023-02-11T16:49:23.200Z,101693.59
2023-02-11T16:52:27.277Z,101683.72
2023-02-11T16:55:32.595Z,101684.13
2023-02-11T16:58:36.558Z,101681.47
2023-02-11T17:01:45.886Z,101677.91
2023-02-11T17:04:50.203Z,101670.84
2023-02-11T17:07:54.731Z,101677.56
2023-02-11T17:11:00.311Z,101676.56
2023-02-11T17:14:06.256Z,101679.53
2023-02-11T17:17:11.469Z,101674.31
2023-02-11T17:20:16.679Z,101688.97
2023-02-11T17:23:20.544Z,101672.97
2023-02-11T17:26:28.959Z,101687.13
2023-02-11T17:29:40.472Z,101691.81
2023-02-11T17:33:00.995Z,101696.00
2023-02-11T17:36:17.246Z,101694.37
2023-02-11T17:39:26.128Z,101705.31
2023-02-11T17:42:32.448Z,101707.66
2023-02-11T17:45:45.581Z,101703.69
2023-02-11T17:48:53.328Z,101703.06
2023-02-11T17:52:00.315Z,101698.75
2023-02-11T17:55:06.040Z,101692.69
2023-02-11T17:58:13.522Z,101686.50
2023-02-11T18:01:18.166Z,101690.38
2023-02-11T18:04:22.830Z,101683.34
2023-02-11T18:07:27.150Z,101674.94
2023-02-11T18:10:31.985Z,101677.47
2023-02-11T18:13:35.518Z,101670.25
2023-02-11T18:16:45.048Z,101661.88
2023-02-11T18:19:49.434Z,101651.84
2023-02-11T18:22:54.819Z,101661.22
2023-02-11T18:25:59.367Z,101657.28
2023-02-11T18:29:08.026Z,101662.91
2023-02-11T18:32:16.089Z,101667.28
2023-02-11T18:35:24.196Z,101676.78
2023-02-11T18:38:29.561Z,101662.47
2023-02-11T18:41:36.837Z,101653.84
2023-02-11T18:44:40.982Z,101669.81
2023-02-11T18:47:56.137Z,101662.53
2023-02-11T18:51:00.164Z,101674.34
2023-02-11T18:54:09.848Z,101678.50
2023-02-11T18:57:13.941Z,101682.34
2023-02-11T19:00:18.989Z,101688.59
2023-02-11T19:03:23.263Z,101685.47
2023-02-11T19:06:30.402Z,101681.16
2023-02-11T19:09:34.377Z,101687.56
2023-02-11T19:12:51.535Z,101687.94
2023-02-11T19:15:55.904Z,101697.34
2023-02-11T19:19:00.438Z,101689.47
2023-02-11T19:22:10.239Z,101693.50
2023-02-11T19:25:15.435Z,101692.53
2023-02-11T19:28:22.977Z,101688.06
2023-02-11T19:31:28.365Z,101699.81
2023-02-11T19:34:34.610Z,101694.84
2023-02-11T19:37:39.548Z,101693.19
2023-02-11T19:40:43.896Z,101697.72
2023-02-11T19:43:53.118Z,101695.19
2023-02-11T19:46:57.083Z,101701.72
2023-02-11T19:50:02.594Z,101702.28
2023-02-11T19:53:07.210Z,101701.78
2023-02-11T19:56:14.127Z,101699.53
2023-02-11T19:59:17.909Z,101697.22
2023-02-11T20:02:22.031Z,101699.97
2023-02-11T20:05:27.954Z,101690.59
2023-02-11T20:08:34.715Z,101692.22
2023-02-11T20:11:42.541Z,101692.81
2023-02-11T20:14:48.593Z,101690.59
2023-02-11T20:17:57.032Z,101689.56
2023-02-11T20:21:03.810Z,101684.16
2023-02-11T20:24:08.999Z,101686.53
2023-02-11T20:27:13.253Z,101692.81
2023-02-11T20:30:19.036Z,101686.72
2023-02-11T20:33:23.660Z,101680.09
2023-02-11T20:36:32.324Z,101685.06
2023-02-11T20:39:42.558Z,101682.59
2023-02-11T20:42:50.112Z,101678.78
2023-02-11T20:45:56.864Z,101678.06
2023-02-11T20:49:04.221Z,101674.69
2023-02-11T20:52:08.849Z,101673.81
2023-02-11T20:55:23.183Z,101677.34
2023-02-11T20:58:26.838Z,101678.22
2023-02-11T21:01:36.947Z,101674.44
2023-02-11T21:04:42.572Z,101672.91
2023-02-11T21:07:47.030Z,101679.44
2023-02-11T21:10:53.244Z,101675.13
2023-02-11T21:13:58.097Z,101677.06
2023-02-11T21:17:02.554Z,101673.66
2023-02-11T21:20:09.190Z,101670.69
2023-02-11T21:23:12.752Z,101681.41
2023-02-11T21:26:18.883Z,101691.81
2023-02-11T21:29:22.700Z,101678.16
2023-02-11T21:32:27.176Z,101684.53
2023-02-11T21:35:36.557Z,101682.91
2023-02-11T21:38:40.166Z,101684.53
2023-02-11T21:41:43.025Z,101683.72
2023-02-11T21:44:47.331Z,101681.56
2023-02-11T21:47:50.761Z,101685.94
2023-02-11T21:50:55.181Z,101691.34
2023-02-11T21:54:01.904Z,101684.84
2023-02-11T21:57:05.803Z,101690.84
2023-02-11T22:00:11.642Z,101698.28
2023-02-11T22:03:15.236Z,101695.44
2023-02-11T22:06:27.167Z,101696.84
2023-02-11T22:09:30.465Z,101697.97
2023-02-11T22:12:33.427Z,101701.56
2023-02-11T22:15:36.559Z,101697.47
2023-02-11T22:18:39.831Z,101694.72
2023-02-11T22:21:43.889Z,101709.88
2023-02-11T22:24:46.942Z,101714.56
2023-02-11T22:27:50.196Z,101728.28
2023-02-11T22:30:55.148Z,101715.47
2023-02-11T22:33:58.958Z,101716.44
2023-02-11T22:37:02.621Z,101722.81
2023-02-11T22:40:06.428Z,101729.94
2023-02-11T22:43:09.782Z,101729.94
2023-02-11T22:46:16.640Z,101733.00
2023-02-11T22:49:21.539Z,101733.50
2023-02-11T22:52:24.641Z,101735.97
2023-02-11T22:55:27.453Z,101723.91
2023-02-11T22:58:30.702Z,101726.09
2023-02-11T23:01:33.980Z,101731.03
2023-02-11T23:04:37.142Z,101722.50
2023-02-11T23:07:39.812Z,101713.97
2023-02-11T23:10:42.922Z,101720.59
2023-02-11T23:13:46.988Z,101720.06
2023-02-11T23:16:50.268Z,101730.25
2023-02-11T23:19:52.973Z,101726.66
2023-02-11T23:22:56.036Z,101720.66
2023-02-11T23:25:58.695Z,101717.38
2023-02-11T23:29:01.689Z,101717.09
2023-02-11T23:32:04.584Z,101721.25
2023-02-11T23:35:07.935Z,101721.53
2023-02-11T23:38:10.644Z,101725.13
2023-02-11T23:41:14.940Z,101723.28
2023-02-11T23:44:17.613Z,101720.81
2023-02-11T23:47:20.653Z,101724.47
2023-02-11T23:50:23.346Z,101721.66
2023-02-11T23:53:26.350Z,101729.06
2023-02-11T23:56:29.138Z,101721.09
2023-02-11T23:59:32.219Z,101707.59
